Time;durP1;ratioP1;P1;durP2;ratioP2;P2;SDS_P1;SDS_P2;PMS_P1;PMS_P2;Temp;Humidity;BMP_temperature;BMP_pressure;BME280_temperature;BME280_humidity;BME280_pressure;Samples;Min_cycle;Max_cycle;Signal;HPM_P1;HPM_P2
2022/06/19 00:02:03;;;;;;;17.97;4.40;;;24.50;66.30;;;;;;5101109;28;20388;-60
2022/06/19 00:04:29;;;;;;;24.60;4.60;;;24.70;66.00;;;;;;5102486;28;20042;-59
2022/06/19 00:06:56;;;;;;;30.20;3.63;;;24.70;65.20;;;;;;5102181;28;20449;-60
2022/06/19 00:09:23;;;;;;;23.67;4.15;;;24.90;64.80;;;;;;5102238;28;20055;-60
2022/06/19 00:11:49;;;;;;;29.98;4.70;;;25.00;63.60;;;;;;5102039;28;21186;-59
2022/06/19 00:14:16;;;;;;;32.22;4.40;;;25.20;63.50;;;;;;5101045;28;20036;-60
2022/06/19 00:16:41;;;;;;;23.20;3.92;;;25.30;62.60;;;;;;5100824;28;20044;-60
2022/06/19 00:19:07;;;;;;;23.75;4.65;;;25.40;62.20;;;;;;5087262;28;20101;-60
2022/06/19 00:21:34;;;;;;;33.45;4.15;;;25.40;62.10;;;;;;5075440;28;20072;-60
2022/06/19 00:24:00;;;;;;;31.13;4.80;;;25.40;61.80;;;;;;5081637;28;20043;-61
2022/06/19 00:26:25;;;;;;;33.53;4.15;;;25.40;62.00;;;;;;5088265;28;20457;-61
2022/06/19 00:28:51;;;;;;;29.67;5.05;;;25.40;61.80;;;;;;5082618;28;20104;-60
2022/06/19 00:31:17;;;;;;;21.02;4.00;;;25.40;61.80;;;;;;5078133;28;20078;-60
2022/06/19 00:33:43;;;;;;;35.22;5.10;;;25.40;62.00;;;;;;5081981;28;20101;-60
2022/06/19 00:36:09;;;;;;;34.85;4.93;;;25.50;60.80;;;;;;5087558;28;20036;-60
2022/06/19 00:38:34;;;;;;;29.77;5.18;;;25.50;60.40;;;;;;5087732;28;20036;-59
2022/06/19 00:41:01;;;;;;;20.88;4.25;;;25.60;60.70;;;;;;5087958;28;20071;-60
2022/06/19 00:43:28;;;;;;;30.27;5.38;;;25.60;59.80;;;;;;5088354;28;20063;-60
2022/06/19 00:46:01;;;;;;;33.40;4.45;;;25.70;59.70;;;;;;5087219;28;20081;-60
2022/06/19 00:48:33;;;;;;;27.67;3.83;;;25.60;60.10;;;;;;5088468;28;20036;-60
2022/06/19 00:51:02;;;;;;;32.92;4.65;;;25.60;59.60;;;;;;5088265;28;20097;-59
2022/06/19 00:53:42;;;;;;;30.63;4.85;;;25.70;59.50;;;;;;5087898;28;20044;-59
2022/06/19 00:56:15;;;;;;;21.92;4.15;;;25.60;59.30;;;;;;5088155;28;20475;-58
2022/06/19 00:58:41;;;;;;;22.40;4.03;;;25.70;59.90;;;;;;5084417;28;20117;-60
2022/06/19 01:01:14;;;;;;;17.55;3.08;;;25.70;58.90;;;;;;5086637;28;20035;-60
2022/06/19 01:04:01;;;;;;;29.92;4.43;;;25.70;58.90;;;;;;5087498;28;20064;-61
2022/06/19 01:06:27;;;;;;;25.27;3.83;;;25.70;58.70;;;;;;5087723;28;20036;-60
2022/06/19 01:08:53;;;;;;;30.95;4.07;;;25.70;59.20;;;;;;5087449;28;20032;-61
2022/06/19 01:11:20;;;;;;;23.38;4.45;;;25.70;59.50;;;;;;5087388;28;20051;-60
2022/06/19 01:13:47;;;;;;;28.88;4.78;;;25.60;59.30;;;;;;5083486;28;20027;-60
2022/06/19 01:16:14;;;;;;;23.45;4.97;;;25.60;59.30;;;;;;5087701;28;20044;-60
2022/06/19 01:18:40;;;;;;;23.83;4.28;;;25.60;59.40;;;;;;5088193;28;20036;-62
2022/06/19 01:21:18;;;;;;;35.78;5.78;;;25.60;58.60;;;;;;5078645;28;20524;-60
2022/06/19 01:24:14;;;;;;;25.27;4.10;;;25.60;58.40;;;;;;5070722;28;20121;-61
2022/06/19 01:26:43;;;;;;;25.38;4.78;;;25.60;59.20;;;;;;5086485;28;20133;-60
2022/06/19 01:29:10;;;;;;;30.48;4.97;;;25.60;58.70;;;;;;5084052;28;20518;-61
2022/06/19 01:31:41;;;;;;;21.50;3.92;;;25.60;58.60;;;;;;5085783;28;20546;-60
2022/06/19 01:34:28;;;;;;;31.65;4.20;;;25.60;59.30;;;;;;5086733;28;20802;-60
2022/06/19 01:37:16;;;;;;;20.38;4.22;;;25.60;58.20;;;;;;5087234;28;20043;-60
2022/06/19 01:39:47;;;;;;;32.03;5.22;;;25.60;58.30;;;;;;5087347;28;20075;-60
2022/06/19 01:42:13;;;;;;;21.77;4.15;;;25.60;57.30;;;;;;5086776;28;20066;-60
2022/06/19 01:44:41;;;;;;;27.85;3.50;;;25.60;57.50;;;;;;5087086;28;20530;-60
2022/06/19 01:47:07;;;;;;;26.23;4.88;;;25.60;57.30;;;;;;5085772;28;20089;-60
2022/06/19 01:49:35;;;;;;;22.88;4.78;;;25.60;57.20;;;;;;5086506;28;20139;-60
2022/06/19 01:52:04;;;;;;;22.23;3.97;;;25.60;57.10;;;;;;5086881;28;20043;-60
2022/06/19 01:54:35;;;;;;;35.63;4.47;;;25.70;57.20;;;;;;5086463;28;20303;-60
2022/06/19 01:57:03;;;;;;;24.67;3.97;;;25.60;56.60;;;;;;5086579;28;20087;-61
2022/06/19 01:59:31;;;;;;;25.08;5.28;;;25.60;56.40;;;;;;5080357;28;20051;-60
2022/06/19 02:01:59;;;;;;;34.50;4.72;;;25.70;55.80;;;;;;5085116;28;20687;-61
2022/06/19 02:04:25;;;;;;;33.95;5.32;;;25.80;56.20;;;;;;5086261;28;20032;-60
2022/06/19 02:06:56;;;;;;;32.65;5.40;;;25.80;56.30;;;;;;5085892;28;20051;-60
2022/06/19 02:09:23;;;;;;;31.63;4.72;;;25.70;56.20;;;;;;5086583;28;20040;-61
2022/06/19 02:11:50;;;;;;;21.60;3.85;;;25.80;56.20;;;;;;5086499;28;20158;-61
2022/06/19 02:14:17;;;;;;;22.45;4.15;;;25.70;56.20;;;;;;5084679;28;20035;-60
2022/06/19 02:16:45;;;;;;;25.67;5.43;;;25.70;56.10;;;;;;5087028;28;20044;-60
2022/06/19 02:19:11;;;;;;;31.42;4.45;;;25.70;56.80;;;;;;5087405;28;20044;-60
2022/06/19 02:21:40;;;;;;;34.28;4.15;;;25.70;56.80;;;;;;5087297;28;20067;-58
2022/06/19 02:24:07;;;;;;;31.77;3.97;;;25.70;56.70;;;;;;5086244;28;20626;-60
2022/06/19 02:26:36;;;;;;;36.22;4.55;;;25.70;56.90;;;;;;5086353;28;20044;-57
2022/06/19 02:29:03;;;;;;;28.63;4.50;;;25.70;56.60;;;;;;5080736;28;20044;-60
2022/06/19 02:31:31;;;;;;;23.10;5.57;;;25.70;57.00;;;;;;5076675;28;20102;-60
2022/06/19 02:34:01;;;;;;;22.60;4.50;;;25.70;57.00;;;;;;5085767;28;20115;-58
2022/06/19 02:36:41;;;;;;;24.00;3.60;;;25.70;56.90;;;;;;5082229;28;20055;-60
2022/06/19 02:39:29;;;;;;;16.27;3.50;;;25.70;56.80;;;;;;5085609;28;20039;-60
2022/06/19 02:42:09;;;;;;;24.48;4.03;;;25.70;57.00;;;;;;5085749;28;20077;-59
2022/06/19 02:44:39;;;;;;;29.63;4.93;;;25.60;57.30;;;;;;5085300;28;20044;-59
2022/06/19 02:47:06;;;;;;;26.00;4.00;;;25.60;57.20;;;;;;5085437;28;20146;-60
2022/06/19 02:49:32;;;;;;;29.23;3.97;;;25.60;57.20;;;;;;5085595;28;20036;-57
2022/06/19 02:51:57;;;;;;;26.13;4.32;;;25.60;57.40;;;;;;5085750;28;20043;-60
2022/06/19 02:54:23;;;;;;;20.42;3.70;;;25.60;57.30;;;;;;5085736;28;20393;-60
2022/06/19 02:56:49;;;;;;;30.92;4.18;;;25.50;57.70;;;;;;5085158;28;20047;-59
2022/06/19 02:59:15;;;;;;;19.45;4.57;;;25.60;57.40;;;;;;5079432;28;20093;-59
2022/06/19 03:01:41;;;;;;;25.00;4.32;;;25.60;57.80;;;;;;5084249;28;20048;-58
2022/06/19 03:04:20;;;;;;;18.45;4.05;;;25.50;57.70;;;;;;5085423;28;20042;-59
2022/06/19 03:06:45;;;;;;;33.28;3.95;;;25.50;57.60;;;;;;5085365;28;20048;-59
2022/06/19 03:09:16;;;;;;;20.02;4.80;;;25.50;57.00;;;;;;5069377;28;20389;-60
2022/06/19 03:11:44;;;;;;;21.73;4.07;;;25.50;57.20;;;;;;5079154;28;20039;-60
2022/06/19 03:14:10;;;;;;;30.85;5.00;;;25.50;57.10;;;;;;5085128;28;20073;-60
2022/06/19 03:16:36;;;;;;;25.65;4.18;;;25.50;56.70;;;;;;5085773;28;20470;-60
2022/06/19 03:19:12;;;;;;;;;;;;;;;;;;;;;
2022/06/19 03:21:41;;;;;;;25.63;4.38;;;25.50;57.00;;;;;;5083357;28;20048;-59
2022/06/19 03:24:10;;;;;;;30.67;4.30;;;25.40;56.80;;;;;;5086535;28;20796;-60
2022/06/19 03:26:36;;;;;;;30.50;4.80;;;25.50;57.00;;;;;;5085587;28;20056;-59
2022/06/19 03:29:10;;;;;;;38.55;5.25;;;25.50;57.00;;;;;;5076526;28;20044;-60
2022/06/19 03:31:38;;;;;;;20.65;3.92;;;25.50;56.90;;;;;;5064913;28;20604;-59
2022/06/19 03:34:09;;;;;;;31.95;3.75;;;25.50;57.30;;;;;;5086548;28;20115;-60
2022/06/19 03:36:37;;;;;;;22.25;4.80;;;25.50;57.70;;;;;;5087712;28;20042;-58
2022/06/19 03:39:05;;;;;;;19.13;4.05;;;25.40;57.40;;;;;;5086561;28;20488;-59
2022/06/19 03:41:33;;;;;;;24.77;4.72;;;25.40;57.50;;;;;;5086408;28;20272;-60
2022/06/19 03:44:01;;;;;;;23.45;3.63;;;25.40;57.90;;;;;;5086309;28;20149;-60
2022/06/19 03:46:27;;;;;;;33.78;4.15;;;25.40;58.10;;;;;;5085404;28;20056;-60
2022/06/19 03:48:55;;;;;;;28.10;4.97;;;25.40;58.00;;;;;;5086677;28;20065;-59
2022/06/19 03:51:24;;;;;;;24.90;3.97;;;25.40;58.60;;;;;;5085789;28;20036;-59
2022/06/19 03:54:00;;;;;;;26.77;4.50;;;25.40;58.60;;;;;;5088917;28;20479;-61
2022/06/19 03:56:34;;;;;;;21.70;3.25;;;25.40;58.80;;;;;;5090243;28;20495;-60
2022/06/19 03:59:00;;;;;;;19.55;4.30;;;25.40;59.50;;;;;;5089556;28;20039;-60
2022/06/19 04:01:31;;;;;;;24.75;4.22;;;25.30;58.70;;;;;;5089117;28;20138;-60
2022/06/19 04:03:58;;;;;;;25.42;6.10;;;25.40;59.10;;;;;;5088098;28;20089;-60
2022/06/19 04:06:27;;;;;;;22.85;4.53;;;25.30;59.10;;;;;;5088636;28;20048;-60
2022/06/19 04:08:52;;;;;;;24.30;3.47;;;25.40;59.00;;;;;;5069555;28;20043;-60
2022/06/19 04:11:20;;;;;;;15.90;3.90;;;25.40;59.30;;;;;;5078427;28;20036;-60
2022/06/19 04:13:46;;;;;;;24.85;4.70;;;25.40;59.20;;;;;;5077944;28;20550;-60
2022/06/19 04:16:37;;;;;;;29.00;5.18;;;25.40;59.30;;;;;;5081689;28;20044;-60
2022/06/19 04:19:05;;;;;;;31.55;4.88;;;25.40;59.20;;;;;;5077446;28;20485;-59
2022/06/19 04:21:33;;;;;;;23.60;4.10;;;25.50;59.30;;;;;;5081531;28;20092;-59
2022/06/19 04:24:03;;;;;;;18.67;4.20;;;25.60;59.00;;;;;;5078467;28;20513;-60
2022/06/19 04:26:30;;;;;;;21.60;5.00;;;25.60;59.30;;;;;;5078219;28;20045;-60
2022/06/19 04:28:56;;;;;;;17.23;4.22;;;25.60;59.30;;;;;;5073539;28;20409;-58
2022/06/19 04:31:22;;;;;;;35.00;5.30;;;25.60;59.40;;;;;;5081914;28;20044;-60
2022/06/19 04:33:48;;;;;;;19.83;3.58;;;25.60;59.20;;;;;;5080381;28;20422;-60
2022/06/19 04:36:16;;;;;;;26.88;4.70;;;25.70;59.60;;;;;;5079788;28;20476;-60
2022/06/19 04:38:44;;;;;;;31.95;5.20;;;25.80;59.30;;;;;;5078997;28;20082;-59
2022/06/19 04:41:15;;;;;;;30.55;4.43;;;25.90;59.50;;;;;;5081225;28;20559;-60
2022/06/19 04:43:41;;;;;;;35.50;5.70;;;25.80;59.50;;;;;;5078359;28;20028;-60
2022/06/19 04:46:07;;;;;;;29.90;5.65;;;25.80;59.70;;;;;;5079019;28;20040;-60
2022/06/19 04:48:33;;;;;;;24.15;4.30;;;25.80;59.70;;;;;;5078637;28;20115;-60
2022/06/19 04:51:00;;;;;;;24.88;4.72;;;25.80;59.80;;;;;;5077830;28;20028;-60
2022/06/19 04:53:26;;;;;;;25.42;4.82;;;25.80;60.10;;;;;;5077642;28;20049;-60
2022/06/19 04:55:52;;;;;;;19.45;3.83;;;25.80;60.40;;;;;;5076160;28;20682;-60
2022/06/19 04:58:22;;;;;;;37.13;4.82;;;26.00;60.20;;;;;;5079210;28;20146;-59
2022/06/19 05:00:49;;;;;;;26.27;3.63;;;26.00;60.10;;;;;;5077991;28;20496;-60
2022/06/19 05:03:15;;;;;;;26.25;4.72;;;26.00;60.70;;;;;;5080434;28;20128;-60
2022/06/19 05:05:41;;;;;;;30.15;4.80;;;25.90;60.80;;;;;;5075966;28;20076;-62
2022/06/19 05:08:07;;;;;;;22.75;4.22;;;25.90;61.00;;;;;;5076666;28;20429;-60
2022/06/19 05:10:32;;;;;;;18.90;3.78;;;25.80;61.40;;;;;;5082633;28;20625;-60
2022/06/19 05:12:58;;;;;;;25.60;4.47;;;25.90;61.70;;;;;;5088651;28;20059;-60
2022/06/19 05:15:24;;;;;;;24.98;5.32;;;25.90;61.90;;;;;;5087924;28;20123;-59
2022/06/19 05:17:50;;;;;;;27.30;4.90;;;25.80;61.80;;;;;;5086890;28;20043;-59
2022/06/19 05:20:16;;;;;;;21.98;4.43;;;25.90;62.20;;;;;;5081794;28;20040;-59
2022/06/19 05:22:41;;;;;;;19.65;4.28;;;26.00;62.10;;;;;;5088101;28;20043;-60
2022/06/19 05:25:08;;;;;;;35.33;5.30;;;26.00;62.30;;;;;;5087916;28;20039;-60
2022/06/19 05:27:38;;;;;;;29.20;5.45;;;26.10;61.90;;;;;;5088819;28;20048;-60
2022/06/19 05:30:06;;;;;;;23.42;4.32;;;26.10;61.90;;;;;;5080666;28;20173;-60
2022/06/19 05:32:32;;;;;;;26.23;5.00;;;26.30;62.70;;;;;;5087821;28;20044;-60
2022/06/19 05:34:57;;;;;;;21.40;4.45;;;26.80;61.30;;;;;;5087493;28;20089;-60
2022/06/19 05:37:23;;;;;;;30.63;4.72;;;27.00;59.90;;;;;;5088862;28;20400;-60
2022/06/19 05:39:48;;;;;;;20.50;5.57;;;26.90;60.50;;;;;;5087579;28;20047;-61
2022/06/19 05:42:14;;;;;;;26.58;5.30;;;26.80;61.30;;;;;;5085633;28;20040;-62
2022/06/19 05:44:40;;;;;;;29.77;5.55;;;26.70;61.70;;;;;;5084189;28;20513;-61
2022/06/19 05:47:06;;;;;;;22.10;4.60;;;26.70;61.80;;;;;;5084857;28;20048;-62
2022/06/19 05:49:34;;;;;;;24.25;6.00;;;26.60;62.20;;;;;;5086629;28;20039;-62
2022/06/19 05:52:03;;;;;;;32.42;4.70;;;26.60;62.60;;;;;;5085061;28;20102;-63
2022/06/19 05:54:29;;;;;;;27.38;4.78;;;26.60;62.50;;;;;;5082752;28;20432;-60
2022/06/19 05:56:55;;;;;;;22.70;5.95;;;26.50;62.80;;;;;;5084953;28;20052;-58
2022/06/19 05:59:21;;;;;;;20.52;4.35;;;26.50;62.90;;;;;;5080276;28;20040;-63
2022/06/19 06:01:47;;;;;;;17.98;4.57;;;26.50;63.30;;;;;;5086981;28;20127;-61
2022/06/19 06:04:12;;;;;;;21.60;4.30;;;26.60;63.30;;;;;;5084577;28;20052;-61
2022/06/19 06:06:40;;;;;;;26.58;4.80;;;26.60;63.80;;;;;;5087025;28;20136;-61
2022/06/19 06:09:06;;;;;;;27.42;4.95;;;26.60;63.20;;;;;;5079807;28;20085;-60
2022/06/19 06:11:32;;;;;;;25.88;5.43;;;26.70;63.20;;;;;;5085951;28;20036;-61
2022/06/19 06:13:57;;;;;;;23.30;4.53;;;26.80;63.50;;;;;;5089569;28;20040;-60
2022/06/19 06:16:23;;;;;;;21.70;4.85;;;27.10;62.90;;;;;;5086194;28;20051;-60
2022/06/19 06:18:50;;;;;;;26.17;5.38;;;27.70;62.30;;;;;;5087822;28;20039;-61
2022/06/19 06:21:20;;;;;;;22.80;5.05;;;28.20;59.70;;;;;;5086789;28;20048;-61
2022/06/19 06:23:46;;;;;;;21.10;4.47;;;28.20;60.00;;;;;;5086907;28;20044;-61
2022/06/19 06:26:13;;;;;;;20.50;4.82;;;28.10;61.30;;;;;;5087254;28;20125;-61
2022/06/19 06:28:41;;;;;;;23.23;5.38;;;27.90;61.50;;;;;;5084673;28;20072;-61
2022/06/19 06:31:08;;;;;;;15.38;4.10;;;27.80;60.70;;;;;;5084997;28;20032;-60
2022/06/19 06:33:34;;;;;;;17.65;4.50;;;28.20;60.70;;;;;;5086324;28;20698;-59
2022/06/19 06:36:00;;;;;;;19.33;4.63;;;28.20;60.70;;;;;;5080118;28;20044;-61
2022/06/19 06:38:26;;;;;;;32.85;5.05;;;28.00;61.00;;;;;;5083153;28;20060;-61
2022/06/19 06:40:52;;;;;;;20.60;4.68;;;27.90;61.90;;;;;;5082992;28;20051;-61
2022/06/19 06:43:19;;;;;;;19.60;4.80;;;27.70;61.90;;;;;;5085004;28;20036;-61
2022/06/19 06:45:44;;;;;;;23.27;5.50;;;27.60;62.70;;;;;;5084363;28;20050;-61
2022/06/19 06:48:11;;;;;;;20.13;5.00;;;27.50;62.40;;;;;;5086366;28;20039;-61
2022/06/19 06:50:38;;;;;;;17.20;5.07;;;27.60;62.40;;;;;;5086320;28;20044;-61
2022/06/19 06:53:04;;;;;;;23.73;4.72;;;27.80;63.00;;;;;;5086413;28;20616;-61
2022/06/19 06:55:29;;;;;;;26.02;5.43;;;28.40;61.90;;;;;;5081178;28;20040;-61
2022/06/19 06:57:55;;;;;;;19.75;5.13;;;28.50;60.20;;;;;;5066417;28;20033;-61
2022/06/19 07:00:22;;;;;;;25.95;5.38;;;28.30;60.50;;;;;;5078850;28;20036;-61
2022/06/19 07:02:48;;;;;;;21.42;4.90;;;28.20;62.00;;;;;;5086152;28;20046;-61
2022/06/19 07:05:14;;;;;;;22.60;4.90;;;28.00;62.10;;;;;;5086407;28;20032;-61
2022/06/19 07:07:40;;;;;;;22.77;4.93;;;27.80;63.10;;;;;;5082857;28;20126;-61
2022/06/19 07:10:06;;;;;;;15.57;4.53;;;27.90;66.60;;;;;;5075272;28;20043;-60
2022/06/19 07:12:32;;;;;;;12.43;4.10;;;27.90;67.60;;;;;;5086453;28;20381;-61
2022/06/19 07:14:58;;;;;;;18.13;4.63;;;27.80;67.40;;;;;;5086685;28;20085;-60
2022/06/19 07:17:23;;;;;;;12.70;4.00;;;27.80;69.10;;;;;;5086093;28;20058;-61
2022/06/19 07:19:49;;;;;;;11.38;3.70;;;27.70;68.90;;;;;;5086724;28;20043;-61
2022/06/19 07:22:17;;;;;;;11.88;3.92;;;28.00;69.00;;;;;;5086495;28;20044;-61
2022/06/19 07:24:44;;;;;;;21.83;4.07;;;28.60;68.60;;;;;;5086673;28;20043;-61
2022/06/19 07:27:11;;;;;;;18.15;4.68;;;28.60;68.20;;;;;;5087140;28;20450;-60
2022/06/19 07:29:44;;;;;;;13.00;3.55;;;28.10;68.80;;;;;;5083436;28;20052;-60
2022/06/19 07:32:11;;;;;;;8.45;3.70;;;27.40;72.80;;;;;;5089631;28;20058;-62
2022/06/19 07:34:38;;;;;;;11.35;3.30;;;27.20;75.10;;;;;;5090331;28;20040;-60
2022/06/19 07:37:05;;;;;;;15.05;3.10;;;26.60;77.10;;;;;;5090618;28;20395;-60
2022/06/19 07:39:31;;;;;;;11.82;3.92;;;26.30;79.00;;;;;;5090685;28;20101;-61
2022/06/19 07:41:57;;;;;;;8.45;3.25;;;26.00;79.20;;;;;;5090064;28;20119;-60
2022/06/19 07:44:22;;;;;;;13.82;3.47;;;25.70;81.50;;;;;;5090163;28;20151;-60
2022/06/19 07:52:17;;;;;;;11.57;3.63;;;25.90;81.50;;;;;;5069380;28;20033;-60
2022/06/19 07:54:42;;;;;;;11.88;3.85;;;26.00;81.20;;;;;;5069982;28;20050;-60
2022/06/19 07:57:08;;;;;;;11.88;4.63;;;26.20;79.60;;;;;;5089649;28;20040;-58
2022/06/19 07:59:33;;;;;;;9.82;3.63;;;25.90;78.30;;;;;;5082730;28;20070;-60
2022/06/19 08:01:59;;;;;;;14.48;4.18;;;25.90;79.70;;;;;;5089082;28;20082;-61
2022/06/19 08:04:25;;;;;;;9.82;3.42;;;26.00;80.00;;;;;;5085089;28;20044;-60
2022/06/19 08:06:50;;;;;;;12.20;3.30;;;26.10;80.20;;;;;;5085008;28;20040;-60
2022/06/19 08:09:16;;;;;;;7.38;2.92;;;26.50;79.60;;;;;;5090136;28;20558;-61
2022/06/19 08:11:42;;;;;;;8.32;3.15;;;27.50;77.00;;;;;;5089949;28;20051;-61
2022/06/19 08:14:07;;;;;;;8.05;3.60;;;28.70;73.30;;;;;;5092664;28;20052;-61
2022/06/19 08:16:34;;;;;;;13.90;4.20;;;29.10;71.90;;;;;;5089403;28;20043;-61
2022/06/19 08:18:59;;;;;;;19.05;4.90;;;29.00;68.10;;;;;;5089981;28;20119;-60
2022/06/19 08:21:25;;;;;;;24.30;4.43;;;29.20;68.00;;;;;;5090162;28;20549;-61
2022/06/19 08:23:50;;;;;;;17.23;4.10;;;29.00;67.50;;;;;;5089594;28;20038;-60
2022/06/19 08:26:16;;;;;;;17.80;4.85;;;28.90;68.60;;;;;;5089889;28;20089;-61
2022/06/19 08:31:23;;;;;;;19.13;4.97;;;28.40;69.60;;;;;;5079125;28;20044;-61
2022/06/19 08:33:48;;;;;;;22.83;5.43;;;28.70;67.50;;;;;;5089918;28;20124;-61
2022/06/19 08:36:15;;;;;;;22.42;4.50;;;29.60;65.30;;;;;;5089287;28;20039;-61
2022/06/19 08:38:44;;;;;;;21.95;4.88;;;30.00;63.00;;;;;;5071486;28;20071;-61
2022/06/19 08:41:17;;;;;;;11.80;4.50;;;30.50;63.20;;;;;;5072875;28;20051;-61
2022/06/19 08:44:08;;;;;;;13.73;4.65;;;30.80;61.30;;;;;;5089437;28;20036;-61
2022/06/19 08:47:08;;;;;;;17.55;4.38;;;31.30;62.20;;;;;;5089980;28;20040;-61
2022/06/19 08:49:58;;;;;;;13.55;4.20;;;32.00;61.40;;;;;;5089437;28;20036;-61
2022/06/19 08:52:55;;;;;;;19.02;5.18;;;32.60;59.60;;;;;;5089982;28;20051;-62
2022/06/19 08:55:50;;;;;;;20.48;4.80;;;32.90;58.20;;;;;;5089966;28;20571;-61
2022/06/19 08:58:31;;;;;;;24.55;5.50;;;32.10;58.20;;;;;;5048021;28;20140;-61
2022/06/19 09:01:20;;;;;;;16.95;3.72;;;31.50;59.00;;;;;;5085780;28;20051;-61
2022/06/19 09:06:52;;;;;;;10.95;3.45;;;30.30;65.70;;;;;;5089919;28;20639;-61
2022/06/19 09:09:37;;;;;;;18.50;3.95;;;29.40;69.00;;;;;;5072199;28;20044;-60
2022/06/19 09:12:20;;;;;;;16.45;4.68;;;28.80;68.60;;;;;;5076702;28;20039;-60
2022/06/19 09:14:45;;;;;;;14.40;4.28;;;28.20;71.70;;;;;;5089638;28;20796;-60
2022/06/19 09:17:27;;;;;;;12.40;4.30;;;28.10;71.90;;;;;;5088537;28;20039;-60
2022/06/19 09:20:29;;;;;;;24.02;4.57;;;28.00;72.80;;;;;;5089279;28;20059;-61
2022/06/19 09:23:18;;;;;;;15.15;4.15;;;27.70;72.40;;;;;;5034693;28;20086;-60
2022/06/19 09:25:53;;;;;;;15.07;4.68;;;27.60;72.60;;;;;;5071133;28;20040;-61
2022/06/19 09:28:19;;;;;;;19.58;4.50;;;27.10;73.50;;;;;;5083199;28;20040;-60
2022/06/19 09:31:15;;;;;;;13.18;4.10;;;27.00;74.20;;;;;;5082978;28;20032;-60
2022/06/19 09:33:54;;;;;;;15.03;4.70;;;26.60;76.40;;;;;;5086758;28;20036;-61
2022/06/19 09:36:36;;;;;;;11.35;3.80;;;26.40;74.90;;;;;;5088173;28;20486;-60
2022/06/19 09:39:24;;;;;;;14.20;4.63;;;26.40;76.20;;;;;;5068190;28;20501;-60
2022/06/19 09:41:56;;;;;;;11.98;3.45;;;26.20;75.30;;;;;;5069762;28;20120;-60
2022/06/19 09:44:37;;;;;;;9.43;3.25;;;26.20;75.40;;;;;;5091524;28;20028;-60
2022/06/19 09:47:02;;;;;;;15.30;2.95;;;26.30;75.90;;;;;;5088559;28;20043;-60
2022/06/19 09:49:43;;;;;;;12.27;3.33;;;26.10;74.10;;;;;;5088246;28;20561;-60
2022/06/19 09:52:20;;;;;;;11.95;3.22;;;25.80;74.00;;;;;;5088023;28;20040;-60
2022/06/19 09:54:55;;;;;;;15.35;3.70;;;25.60;74.90;;;;;;5088020;28;20068;-60
2022/06/19 09:57:26;;;;;;;10.40;3.17;;;25.50;74.80;;;;;;5072961;28;20031;-60
2022/06/19 09:59:57;;;;;;;11.75;3.55;;;25.50;75.90;;;;;;5081165;28;20032;-60
2022/06/19 10:02:45;;;;;;;10.40;3.97;;;25.20;75.00;;;;;;5079880;28;20044;-60
2022/06/19 10:05:29;;;;;;;14.60;4.20;;;25.00;76.70;;;;;;5088186;28;20048;-60
2022/06/19 10:08:03;;;;;;;12.63;3.75;;;24.70;77.30;;;;;;5088940;28;20044;-60
2022/06/19 10:10:40;;;;;;;14.13;3.60;;;24.80;78.60;;;;;;5088151;28;20097;-60
2022/06/19 10:13:18;;;;;;;14.55;4.13;;;24.90;76.60;;;;;;5088096;28;20032;-59
2022/06/19 10:15:46;;;;;;;20.88;4.78;;;25.30;77.70;;;;;;5087721;28;20040;-60
2022/06/19 10:18:24;;;;;;;11.55;3.90;;;25.60;76.10;;;;;;5088520;28;20032;-59
2022/06/19 10:22:13;;;;;;;20.10;5.68;;;25.60;76.30;;;;;;5083895;28;20108;-60
2022/06/19 10:24:42;;;;;;;8.82;4.25;;;24.90;76.10;;;;;;5082765;28;20055;-61
2022/06/19 10:27:28;;;;;;;14.43;5.30;;;25.00;78.00;;;;;;5084099;28;20086;-60
2022/06/19 10:30:11;;;;;;;13.85;4.97;;;24.60;78.40;;;;;;5079349;28;20161;-59
2022/06/19 10:33:01;;;;;;;16.10;4.85;;;24.70;77.90;;;;;;5077147;28;20078;-59
2022/06/19 10:38:19;;;;;;;17.40;5.18;;;24.60;79.10;;;;;;5023111;28;20077;-60
2022/06/19 10:41:04;;;;;;;17.42;5.05;;;24.70;79.00;;;;;;5024332;28;20064;-59
2022/06/19 10:43:48;;;;;;;16.40;5.10;;;24.60;78.30;;;;;;5025924;28;20494;-59
2022/06/19 10:46:16;;;;;;;17.05;5.38;;;24.50;78.70;;;;;;5026742;28;20711;-59
2022/06/19 10:49:02;;;;;;;15.05;4.97;;;24.50;76.90;;;;;;5027299;28;20504;-60
2022/06/19 10:51:39;;;;;;;14.65;4.47;;;24.40;79.30;;;;;;5026130;28;20041;-60
2022/06/19 10:54:32;;;;;;;14.75;4.90;;;24.30;80.40;;;;;;5026985;28;20053;-61
2022/06/19 10:57:21;;;;;;;19.90;6.90;;;24.50;79.50;;;;;;5026573;28;20050;-60
2022/06/19 10:59:48;;;;;;;15.43;5.35;;;24.30;78.30;;;;;;5026864;28;20045;-59
2022/06/19 11:05:25;;;;;;;34.65;6.70;;;24.30;79.80;;;;;;5025891;28;20037;-60
2022/06/19 11:07:50;;;;;;;15.93;4.82;;;24.20;79.70;;;;;;5032156;28;20612;-60
2022/06/19 11:10:30;;;;;;;19.45;6.25;;;24.30;79.70;;;;;;5026118;28;20038;-60
2022/06/19 11:12:57;;;;;;;18.55;5.00;;;24.30;79.10;;;;;;5009035;28;20042;-60
2022/06/19 11:15:33;;;;;;;27.83;5.90;;;24.30;78.90;;;;;;5014488;28;20049;-60
2022/06/19 11:18:15;;;;;;;17.55;5.32;;;24.10;79.20;;;;;;5018198;28;20037;-58
2022/06/19 11:21:03;;;;;;;13.93;4.45;;;24.00;79.40;;;;;;5012600;28;20072;-60
2022/06/19 11:23:38;;;;;;;17.75;5.25;;;23.70;80.70;;;;;;5019252;28;20046;-58
2022/06/19 11:26:16;;;;;;;24.33;5.68;;;23.50;83.30;;;;;;5009486;28;20054;-59
2022/06/19 11:29:17;;;;;;;15.25;4.57;;;23.30;81.20;;;;;;5012875;28;21040;-59
2022/06/19 11:32:13;;;;;;;16.40;5.35;;;23.30;82.30;;;;;;5020734;28;20052;-60
2022/06/19 11:34:47;;;;;;;17.30;6.03;;;23.50;81.90;;;;;;5025895;28;20095;-60
2022/06/19 11:37:25;;;;;;;14.70;5.65;;;23.20;81.40;;;;;;5025705;28;20053;-60
2022/06/19 11:40:13;;;;;;;13.40;5.30;;;23.00;82.50;;;;;;5026401;28;20132;-58
2022/06/19 11:42:48;;;;;;;17.08;6.30;;;22.90;83.30;;;;;;5006462;28;20316;-60
2022/06/19 11:45:14;;;;;;;20.15;5.93;;;22.90;83.40;;;;;;5020054;28;20040;-59
2022/06/19 11:47:57;;;;;;;22.40;5.90;;;22.90;82.70;;;;;;5025810;28;20037;-59
2022/06/19 11:50:41;;;;;;;16.92;5.88;;;22.90;83.40;;;;;;5015840;28;20045;-59
2022/06/19 11:53:08;;;;;;;17.33;5.68;;;22.90;83.50;;;;;;5023026;28;20176;-60
2022/06/19 11:55:49;;;;;;;14.00;5.13;;;23.00;83.50;;;;;;5020715;28;20095;-60
2022/06/19 11:58:42;;;;;;;18.48;5.35;;;23.00;82.90;;;;;;5024336;28;20041;-60
2022/06/19 12:01:15;;;;;;;16.92;5.47;;;23.20;83.20;;;;;;5030323;28;20037;-60
2022/06/19 12:03:58;;;;;;;22.27;5.80;;;23.40;83.70;;;;;;5025610;28;20067;-60
2022/06/19 12:06:48;;;;;;;17.10;5.20;;;23.40;83.10;;;;;;5006329;28;20081;-60
2022/06/19 12:09:42;;;;;;;22.15;5.80;;;23.40;82.60;;;;;;5007743;28;20065;-60
2022/06/19 12:12:18;;;;;;;22.83;5.63;;;23.70;83.40;;;;;;5023580;28;20037;-60
2022/06/19 12:14:46;;;;;;;14.45;4.65;;;23.90;81.70;;;;;;5028055;28;20030;-60
2022/06/19 12:17:26;;;;;;;16.42;5.00;;;24.00;82.00;;;;;;5029334;28;20076;-58
2022/06/19 12:20:04;;;;;;;13.23;4.22;;;24.00;82.40;;;;;;5028789;28;20033;-60
2022/06/19 12:22:49;;;;;;;13.68;5.30;;;24.10;82.50;;;;;;5029543;28;20044;-59
2022/06/19 12:25:33;;;;;;;17.00;5.30;;;24.10;81.60;;;;;;5029497;28;20033;-60
2022/06/19 12:28:17;;;;;;;11.73;4.32;;;23.90;82.80;;;;;;5029243;28;20056;-60
2022/06/19 12:31:03;;;;;;;19.85;5.30;;;24.00;82.40;;;;;;5033913;28;20041;-60
2022/06/19 12:33:31;;;;;;;13.50;4.88;;;24.00;83.10;;;;;;4991516;28;20072;-60
2022/06/19 12:35:57;;;;;;;10.70;4.22;;;24.00;83.40;;;;;;5020075;28;20121;-60
2022/06/19 12:38:24;;;;;;;13.15;4.30;;;24.00;84.00;;;;;;5028992;28;20085;-60
2022/06/19 12:40:58;;;;;;;21.15;5.22;;;24.20;84.00;;;;;;5027255;28;20045;-60
2022/06/19 12:43:32;;;;;;;18.20;5.30;;;24.30;82.80;;;;;;5021059;28;20124;-60
2022/06/19 12:45:58;;;;;;;15.32;4.68;;;24.50;84.00;;;;;;5036454;28;20037;-60
2022/06/19 12:48:38;;;;;;;15.30;4.55;;;24.60;83.60;;;;;;5048621;28;20045;-59
2022/06/19 12:51:31;;;;;;;13.40;4.90;;;24.60;82.60;;;;;;5037289;28;20072;-60
2022/06/19 12:54:11;;;;;;;10.35;4.60;;;24.80;83.70;;;;;;5028668;28;20572;-59
2022/06/19 12:57:06;;;;;;;9.88;4.53;;;25.00;82.50;;;;;;5028108;28;20072;-60
2022/06/19 13:00:07;;;;;;;17.48;5.10;;;25.00;81.50;;;;;;5033732;28;20068;-60
2022/06/19 13:02:48;;;;;;;17.65;5.35;;;25.00;81.10;;;;;;5034616;28;20029;-59
2022/06/19 13:05:26;;;;;;;14.30;4.63;;;25.00;81.20;;;;;;5027587;28;20175;-60
2022/06/19 13:08:06;;;;;;;11.73;4.65;;;25.00;82.80;;;;;;5028523;28;20099;-60
2022/06/19 13:11:04;;;;;;;13.50;5.07;;;25.10;83.40;;;;;;5028262;28;20102;-58
2022/06/19 13:14:05;;;;;;;16.00;4.60;;;25.20;82.60;;;;;;5027959;28;20529;-60
2022/06/19 13:17:00;;;;;;;23.60;5.03;;;25.20;82.00;;;;;;5027898;28;20282;-59
2022/06/19 13:20:00;;;;;;;12.63;5.13;;;25.10;82.30;;;;;;5028076;28;20498;-60
2022/06/19 13:22:37;;;;;;;10.48;4.45;;;25.10;82.70;;;;;;5027185;28;20402;-60